createdAt,value
2023-02-03T03:26:25.125Z,5.90
2023-02-03T03:29:35.324Z,6.00
2023-02-03T03:38:04.785Z,6.10
2023-02-03T04:27:05.366Z,6.60
2023-02-03T06:32:22.367Z,5.90
2023-02-03T06:34:51.224Z,5.90
2023-02-03T06:37:33.532Z,5.70
2023-02-03T06:40:02.344Z,5.70
2023-02-03T06:42:31.208Z,5.80
2023-02-03T06:45:00.470Z,5.80
2023-02-03T06:47:30.623Z,5.90
2023-02-03T06:49:59.682Z,6.00
2023-02-03T06:52:28.417Z,6.00
2023-02-03T06:54:57.438Z,6.20
2023-02-03T06:57:26.326Z,6.20
2023-02-03T06:59:55.225Z,6.30
2023-02-03T07:02:23.845Z,6.00
2023-02-03T07:04:54.160Z,6.10
2023-02-03T07:07:22.869Z,6.20
2023-02-03T07:09:51.695Z,6.30
2023-02-03T07:12:20.389Z,6.40
2023-02-03T07:14:49.069Z,6.40
2023-02-03T07:17:17.679Z,6.40
2023-02-03T07:19:46.359Z,6.30
2023-02-03T07:22:16.614Z,6.10
2023-02-03T07:24:45.216Z,6.10
2023-02-03T07:27:13.999Z,6.00
2023-02-03T07:29:42.636Z,6.10
2023-02-03T07:32:11.254Z,6.10
2023-02-03T07:34:40.135Z,6.10
2023-02-03T07:37:09.083Z,6.20
2023-02-03T07:39:39.308Z,6.10
2023-02-03T07:42:07.995Z,6.20
2023-02-03T07:44:36.769Z,6.30
2023-02-03T07:47:05.518Z,6.50
2023-02-03T07:49:34.126Z,6.50
2023-02-03T07:52:03.598Z,6.40
2023-02-03T07:54:32.307Z,6.30
2023-02-03T07:57:02.775Z,6.30
2023-02-03T07:59:31.502Z,6.40
2023-02-03T08:02:00.338Z,6.40
2023-02-03T08:04:29.194Z,6.20
2023-02-03T08:06:57.897Z,6.30
2023-02-03T08:09:26.636Z,6.40
2023-02-03T08:11:55.409Z,6.40
2023-02-03T08:14:25.520Z,6.60
2023-02-03T08:16:54.634Z,6.50
2023-02-03T08:19:23.308Z,6.60
2023-02-03T08:21:51.986Z,6.40
2023-02-03T08:24:20.704Z,6.40
2023-02-03T08:26:49.433Z,6.60
2023-02-03T08:29:18.769Z,6.60
2023-02-03T08:31:49.157Z,6.70
2023-02-03T08:34:17.985Z,6.70
2023-02-03T08:36:46.787Z,6.50
2023-02-03T08:39:15.376Z,6.50
2023-02-03T08:41:44.138Z,6.60
2023-02-03T08:44:12.846Z,6.60
2023-02-03T08:46:44.211Z,6.40
2023-02-03T08:49:14.389Z,6.40
2023-02-03T08:51:44.351Z,6.50
2023-02-03T08:54:13.505Z,6.50
2023-02-03T08:56:43.122Z,6.50
2023-02-03T08:59:11.949Z,6.60
2023-02-03T09:01:44.852Z,6.70
2023-02-03T09:04:18.564Z,6.60
2023-02-03T09:06:48.146Z,6.50
2023-02-03T09:09:17.227Z,6.60
2023-02-03T09:11:45.920Z,6.50
2023-02-03T09:14:14.632Z,6.30
2023-02-03T09:16:43.526Z,6.30
2023-02-03T09:19:13.448Z,6.40
2023-02-03T09:21:44.696Z,6.50
2023-02-03T09:24:17.344Z,6.50
2023-02-03T09:26:45.973Z,6.60
2023-02-03T09:29:14.592Z,6.50
2023-02-03T09:31:43.945Z,6.50
2023-02-03T09:34:12.824Z,6.40
2023-02-03T09:36:43.162Z,6.40
2023-02-03T09:39:11.961Z,6.40
2023-02-03T09:42:26.156Z,6.40
2023-02-03T09:45:12.410Z,6.30
2023-02-03T09:47:44.821Z,6.30
2023-02-03T09:50:20.530Z,6.40
2023-02-03T09:52:52.500Z,6.40
2023-02-03T09:55:35.946Z,6.30
2023-02-03T09:58:12.047Z,6.40
2023-02-03T10:00:46.459Z,6.30
2023-02-03T10:03:27.152Z,6.40
2023-02-03T10:06:23.410Z,6.40
2023-02-03T10:09:25.241Z,6.50
2023-02-03T10:12:33.094Z,6.40
2023-02-03T10:15:28.652Z,6.30
2023-02-03T10:18:03.457Z,6.50
2023-02-03T10:20:45.458Z,6.60
2023-02-03T10:23:24.251Z,6.60
2023-02-03T10:25:57.922Z,6.50
2023-02-03T10:28:32.564Z,6.40
2023-02-03T10:31:04.812Z,6.50
2023-02-03T10:33:34.878Z,6.40
2023-02-03T10:36:21.063Z,6.40
2023-02-03T10:39:04.415Z,6.50
2023-02-03T10:41:37.572Z,6.40
2023-02-03T10:44:12.176Z,6.60
2023-02-03T10:46:44.026Z,6.60
2023-02-03T10:49:16.488Z,6.50
2023-02-03T10:51:52.407Z,6.70
2023-02-03T10:54:34.492Z,6.80
2023-02-03T10:57:13.167Z,6.80
2023-02-03T10:59:46.454Z,6.90
2023-02-03T11:02:26.419Z,7.00
2023-02-03T11:05:12.925Z,7.10
2023-02-03T11:07:41.770Z,7.10
2023-02-03T11:10:30.580Z,7.10
2023-02-03T11:13:22.505Z,7.00
2023-02-03T11:15:58.850Z,7.00
2023-02-03T11:18:38.333Z,7.00
2023-02-03T11:21:14.953Z,7.00
2023-02-03T11:23:56.709Z,6.90
2023-02-03T11:26:30.609Z,7.10
2023-02-03T11:29:04.211Z,7.10
2023-02-03T11:31:36.509Z,7.10
2023-02-03T11:34:15.063Z,6.90
2023-02-03T11:36:44.054Z,6.80
2023-02-03T11:39:25.322Z,6.70
2023-02-03T11:41:54.900Z,6.70
2023-02-03T11:44:31.376Z,6.90
2023-02-03T11:47:05.786Z,7.10
2023-02-03T11:50:15.415Z,7.00
2023-02-03T11:53:00.355Z,7.10
2023-02-03T11:55:53.597Z,7.40
2023-02-03T11:59:36.926Z,7.50
2023-02-03T12:02:55.527Z,7.50
2023-02-03T12:05:51.308Z,7.50
2023-02-03T12:08:45.404Z,7.70
2023-02-03T12:11:33.989Z,7.80
2023-02-03T12:14:23.561Z,7.70
2023-02-03T12:17:25.079Z,7.60
2023-02-03T12:20:14.090Z,7.60
2023-02-03T12:22:55.597Z,7.60
2023-02-03T12:25:38.524Z,7.80
2023-02-03T12:28:33.271Z,7.80
2023-02-03T12:31:14.471Z,7.80
2023-02-03T12:33:51.981Z,7.80
2023-02-03T12:36:27.830Z,7.80
2023-02-03T12:39:09.873Z,7.90
2023-02-03T12:41:44.242Z,7.70
2023-02-03T12:44:23.629Z,7.60
2023-02-03T12:47:03.098Z,7.50
2023-02-03T12:49:43.565Z,7.50
2023-02-03T12:52:22.812Z,7.60
2023-02-03T12:55:02.507Z,7.70
2023-02-03T12:57:38.409Z,7.70
2023-02-03T13:00:32.225Z,7.50
2023-02-03T13:03:30.119Z,7.40
2023-02-03T13:06:10.030Z,7.40
2023-02-03T13:08:43.642Z,7.20
2023-02-03T13:11:27.564Z,7.20
2023-02-03T13:14:03.711Z,7.10
2023-02-03T13:16:40.955Z,7.00
2023-02-03T13:19:19.300Z,7.10
2023-02-03T13:21:53.004Z,7.10
2023-02-03T13:24:27.104Z,7.10
2023-02-03T13:27:39.528Z,7.00
2023-02-03T13:30:52.693Z,7.10
2023-02-03T13:33:59.583Z,7.10
2023-02-03T13:36:59.549Z,6.90
2023-02-03T13:39:46.851Z,6.80
2023-02-03T13:42:27.511Z,6.80
2023-02-03T13:45:04.890Z,6.80
2023-02-03T13:47:34.750Z,6.90
2023-02-03T13:50:12.851Z,7.00
2023-02-03T13:52:56.309Z,7.00
2023-02-03T13:55:38.059Z,7.00
2023-02-03T13:58:21.052Z,7.00
2023-02-03T14:01:37.199Z,7.10
2023-02-03T14:04:09.109Z,7.00
2023-02-03T14:07:02.555Z,7.00
2023-02-03T14:10:30.237Z,6.90
2023-02-03T14:13:03.017Z,6.70
2023-02-03T14:15:36.944Z,6.50
2023-02-03T14:18:35.764Z,6.50
2023-02-03T14:21:18.343Z,6.40
2023-02-03T14:24:04.837Z,6.50
2023-02-03T14:26:44.642Z,6.60
2023-02-03T14:29:29.673Z,6.70
2023-02-03T14:32:05.147Z,6.60
2023-02-03T14:34:39.485Z,6.60
2023-02-03T14:37:22.534Z,6.70
2023-02-03T14:40:28.983Z,6.60
2023-02-03T14:46:59.933Z,6.30
2023-02-03T14:55:45.430Z,6.20
2023-02-03T14:58:31.158Z,6.30
2023-02-03T15:01:00.632Z,6.30
2023-02-03T15:03:31.316Z,6.30
2023-02-03T15:06:03.369Z,6.10
2023-02-03T15:08:40.917Z,6.20
2023-02-03T15:11:35.740Z,6.20
2023-02-03T15:14:26.169Z,6.30
2023-02-03T15:16:59.898Z,6.20
2023-02-03T15:22:53.461Z,6.20
2023-02-03T15:25:39.856Z,6.20
2023-02-03T15:31:19.897Z,6.20
2023-02-03T15:34:29.004Z,6.20
2023-02-03T15:37:03.463Z,6.20
2023-02-03T15:39:50.036Z,6.20
2023-02-03T15:42:28.726Z,6.20
2023-02-03T15:45:09.758Z,6.30
2023-02-03T15:47:49.546Z,6.30
2023-02-03T15:50:31.906Z,6.40
2023-02-03T15:53:10.404Z,6.20
2023-02-03T15:55:49.830Z,6.20
2023-02-03T15:58:35.130Z,6.20
2023-02-03T16:01:17.967Z,6.30
2023-02-03T16:03:53.304Z,6.30
2023-02-03T16:06:31.944Z,6.40
2023-02-03T16:09:00.918Z,6.40
2023-02-03T16:11:35.554Z,6.30
2023-02-03T16:14:35.533Z,6.20
2023-02-03T16:17:17.285Z,6.30
2023-02-03T16:23:58.796Z,6.20
2023-02-03T16:26:39.735Z,6.20
2023-02-03T16:29:54.763Z,6.00
2023-02-03T16:32:47.851Z,6.20
2023-02-03T16:35:34.687Z,6.10
2023-02-03T16:38:32.401Z,6.30
2023-02-03T16:48:14.514Z,6.30
2023-02-03T16:51:28.900Z,6.00
2023-02-03T17:13:00.731Z,6.30
2023-02-03T18:02:10.471Z,6.60
2023-02-03T18:05:06.284Z,6.70
2023-02-03T18:08:20.294Z,6.50
2023-02-03T18:10:49.364Z,6.70
2023-02-03T18:13:18.436Z,6.80
2023-02-03T18:16:36.320Z,6.90
2023-02-03T18:19:56.982Z,6.90
2023-02-03T18:22:40.002Z,6.50
2023-02-03T18:26:36.290Z,6.60
2023-02-03T18:29:09.800Z,6.70
2023-02-03T18:31:39.235Z,6.70
2023-02-03T18:34:34.872Z,6.70
2023-02-03T18:42:40.459Z,6.70
2023-02-03T18:46:48.750Z,6.80
2023-02-03T19:04:35.489Z,6.80
2023-02-03T19:26:24.614Z,6.60
2023-02-03T19:28:53.989Z,6.60
2023-02-03T19:31:22.772Z,6.50
2023-02-03T19:33:51.472Z,6.70
2023-02-03T19:36:26.774Z,6.80
2023-02-03T19:38:55.436Z,6.70
2023-02-03T19:41:27.236Z,6.60
2023-02-03T19:43:56.008Z,6.60
2023-02-03T19:46:25.719Z,6.80
2023-02-03T19:48:54.560Z,6.80
2023-02-03T19:51:24.469Z,6.80
2023-02-03T19:53:53.777Z,6.80
2023-02-03T19:56:22.609Z,6.80
2023-02-03T19:58:53.874Z,6.80
2023-02-03T20:01:24.644Z,6.90
2023-02-03T20:03:53.702Z,7.00
2023-02-03T20:06:23.509Z,7.00
2023-02-03T20:08:52.519Z,6.90
2023-02-03T20:11:22.218Z,6.80
2023-02-03T20:13:52.462Z,6.80
2023-02-03T20:16:21.702Z,6.80
2023-02-03T20:18:53.074Z,6.70
2023-02-03T20:21:21.772Z,6.90
2023-02-03T20:23:50.850Z,7.00
2023-02-03T20:26:19.648Z,6.90
2023-02-03T20:28:49.390Z,7.00
2023-02-03T20:31:19.600Z,7.00
2023-02-03T20:33:48.373Z,7.00
2023-02-03T20:36:16.999Z,7.00
2023-02-03T20:38:47.288Z,7.10
2023-02-03T20:41:19.999Z,7.10
2023-02-03T20:43:49.169Z,7.00
2023-02-03T20:46:20.990Z,6.90
2023-02-03T20:48:49.669Z,7.00
2023-02-03T20:51:21.142Z,7.10
2023-02-03T20:53:51.641Z,7.00
2023-02-03T20:56:21.908Z,7.10
2023-02-03T20:58:50.813Z,7.00
2023-02-03T21:01:23.337Z,7.00
2023-02-03T21:04:10.696Z,7.00
2023-02-03T21:06:40.726Z,7.00
2023-02-03T21:09:17.411Z,6.90
2023-02-03T21:11:46.342Z,6.80
2023-02-03T21:14:23.097Z,6.90
2023-02-03T21:16:54.946Z,7.00
2023-02-03T21:19:31.517Z,7.00
2023-02-03T21:22:00.928Z,7.00
2023-02-03T21:24:33.201Z,7.10
2023-02-03T21:27:02.910Z,7.00
2023-02-03T21:29:34.785Z,7.00
2023-02-03T21:32:12.695Z,7.10
2023-02-03T21:34:45.173Z,7.10
2023-02-03T21:37:40.831Z,7.20
2023-02-03T21:40:28.799Z,7.20
2023-02-03T21:42:58.730Z,7.10
2023-02-03T21:45:42.332Z,7.20
2023-02-03T21:48:32.121Z,7.20
2023-02-03T21:51:05.929Z,7.20
2023-02-03T21:53:36.309Z,7.20
2023-02-03T21:56:22.913Z,7.30
2023-02-03T21:58:53.497Z,7.20
2023-02-03T22:01:23.117Z,7.30
2023-02-03T22:03:55.382Z,7.40
2023-02-03T22:06:29.965Z,7.30
2023-02-03T22:09:00.096Z,7.30
2023-02-03T22:11:32.139Z,7.30
2023-02-03T22:14:01.009Z,7.30
2023-02-03T22:16:30.196Z,7.30
2023-02-03T22:19:00.270Z,7.40
2023-02-03T22:21:29.089Z,7.40
2023-02-03T22:23:57.925Z,7.40
2023-02-03T22:26:26.648Z,7.30
2023-02-03T22:28:55.337Z,7.30
2023-02-03T22:31:24.460Z,7.30
2023-02-03T22:33:53.343Z,7.20
2023-02-03T22:36:23.603Z,7.40
2023-02-03T22:38:53.094Z,7.30
2023-02-03T22:41:22.080Z,7.20
2023-02-03T22:43:51.030Z,7.20
2023-02-03T22:46:20.187Z,7.20
2023-02-03T22:48:48.861Z,7.30
2023-02-03T22:51:17.563Z,7.30
2023-02-03T22:53:47.909Z,7.40
2023-02-03T22:56:16.534Z,7.40
2023-02-03T22:58:45.380Z,7.50
2023-02-03T23:01:15.506Z,7.40
2023-02-03T23:03:44.188Z,7.40
2023-02-03T23:06:12.850Z,7.40
2023-02-03T23:08:41.435Z,7.40
2023-02-03T23:11:11.725Z,7.60
2023-02-03T23:13:42.019Z,7.60
2023-02-03T23:16:10.765Z,7.50
2023-02-03T23:18:39.467Z,7.50
2023-02-03T23:21:08.090Z,7.40
2023-02-03T23:23:36.661Z,7.40
2023-02-03T23:26:05.242Z,7.40
2023-02-03T23:28:35.225Z,7.30
2023-02-03T23:31:04.061Z,7.30
2023-02-03T23:33:32.709Z,7.40
2023-02-03T23:36:00.368Z,7.40
2023-02-03T23:38:29.269Z,7.50
2023-02-03T23:40:57.785Z,7.40
2023-02-03T23:43:26.403Z,7.50
2023-02-03T23:45:56.371Z,7.30
2023-02-03T23:48:25.205Z,7.20
2023-02-03T23:50:54.451Z,7.30
2023-02-03T23:53:23.113Z,7.30
2023-02-03T23:55:51.704Z,7.30
2023-02-03T23:58:20.386Z,7.30
